Time;durP1;ratioP1;P1;durP2;ratioP2;P2;SDS_P1;SDS_P2;PMS_P1;PMS_P2;Temp;Humidity;BMP_temperature;BMP_pressure;BME280_temperature;BME280_humidity;BME280_pressure;Samples;Min_cycle;Max_cycle;Signal;HPM_P1;HPM_P2
2022/07/12 00:01:49;;;;;;;1.30;1.00;;;;;;;18.25;92.23;101664.09;5037402;28;20033;-71
2022/07/12 00:04:14;;;;;;;0.80;0.80;;;;;;;18.34;92.01;101661.78;5045222;28;20048;-71
2022/07/12 00:06:40;;;;;;;1.30;1.00;;;;;;;18.33;92.00;101662.16;5045703;28;20048;-71
2022/07/12 00:09:05;;;;;;;1.98;0.82;;;;;;;18.39;91.62;101663.38;5038731;28;20041;-70
2022/07/12 00:11:31;;;;;;;1.30;1.20;;;;;;;18.41;91.47;101656.34;5042516;28;20119;-71
2022/07/12 00:13:56;;;;;;;1.52;1.15;;;;;;;18.48;91.81;101656.44;5046530;28;20044;-72
2022/07/12 00:16:22;;;;;;;1.02;0.70;;;;;;;18.29;91.20;101648.50;5044682;28;20028;-71
2022/07/12 00:18:48;;;;;;;3.53;1.15;;;;;;;18.20;92.05;101656.25;5041423;28;20168;-71
2022/07/12 00:21:14;;;;;;;1.20;0.90;;;;;;;18.14;92.55;101655.03;5070315;22;20056;-66
2022/07/12 00:23:39;;;;;;;1.75;0.90;;;;;;;18.19;92.23;101657.41;5054719;28;20045;-64
2022/07/12 00:26:05;;;;;;;1.00;0.82;;;;;;;18.20;92.26;101655.44;5049790;28;20029;-63
2022/07/12 00:28:31;;;;;;;1.67;0.90;;;;;;;18.16;91.89;101654.66;5056764;28;20067;-63
2022/07/12 00:30:57;;;;;;;1.30;0.95;;;;;;;17.79;93.26;101643.91;5064658;28;20033;-63
2022/07/12 00:33:23;;;;;;;2.10;0.85;;;;;;;17.86;93.72;101641.25;5055954;28;20032;-63
2022/07/12 00:35:49;;;;;;;1.40;0.93;;;;;;;17.95;92.96;101639.75;5050355;28;20063;-63
2022/07/12 00:38:14;;;;;;;1.70;1.10;;;;;;;18.02;92.65;101631.59;5060795;28;20498;-63
2022/07/12 00:40:40;;;;;;;1.20;1.02;;;;;;;17.91;92.98;101640.88;5059769;28;20468;-63
2022/07/12 00:43:07;;;;;;;2.47;1.10;;;;;;;17.74;93.54;101633.38;5062197;28;20025;-63
2022/07/12 00:45:32;;;;;;;0.90;0.77;;;;;;;17.82;93.74;101630.31;5058196;28;20033;-64
2022/07/12 00:47:59;;;;;;;1.00;0.80;;;;;;;17.48;94.66;101619.94;5057530;28;20035;-63
2022/07/12 00:50:25;;;;;;;1.13;0.77;;;;;;;17.65;94.93;101624.75;5064601;28;20036;-64
2022/07/12 00:52:54;;;;;;;1.48;0.95;;;;;;;17.59;95.13;101620.81;5048681;28;20025;-64
2022/07/12 00:55:20;;;;;;;1.42;0.98;;;;;;;17.70;94.22;101616.22;5066658;28;20536;-63
2022/07/12 00:57:47;;;;;;;3.10;0.70;;;;;;;17.56;94.99;101616.91;5068348;28;20051;-63
2022/07/12 01:00:14;;;;;;;1.30;0.95;;;;;;;17.54;94.41;101610.25;5067480;28;20051;-63
2022/07/12 01:02:40;;;;;;;1.40;1.05;;;;;;;17.38;95.82;101615.19;5064385;28;20154;-64
2022/07/12 01:05:07;;;;;;;1.17;0.77;;;;;;;17.45;95.21;101601.59;5066486;28;20119;-63
2022/07/12 01:07:34;;;;;;;1.50;0.70;;;;;;;17.57;94.90;101618.47;5068454;28;20029;-63
2022/07/12 01:10:01;;;;;;;1.05;0.88;;;;;;;17.53;94.35;101619.59;5063951;28;20610;-63
2022/07/12 01:12:26;;;;;;;1.70;1.20;;;;;;;17.67;93.62;101616.97;5050616;28;20123;-64
2022/07/12 01:14:53;;;;;;;2.22;1.05;;;;;;;17.60;94.17;101617.72;5068788;28;20107;-63
2022/07/12 01:17:24;;;;;;;2.15;1.35;;;;;;;17.72;94.09;101624.78;5069976;28;20052;-63
2022/07/12 01:19:52;;;;;;;0.98;0.85;;;;;;;17.68;94.25;101622.03;5064359;28;20320;-63
2022/07/12 01:22:18;;;;;;;0.95;0.90;;;;;;;17.50;94.20;101626.56;5070979;28;20093;-64
2022/07/12 01:24:45;;;;;;;1.75;1.27;;;;;;;17.45;94.31;101621.47;5068244;28;20379;-63
2022/07/12 01:27:12;;;;;;;3.20;1.10;;;;;;;17.36;95.11;101621.00;5066074;28;20047;-64
2022/07/12 01:29:39;;;;;;;1.38;1.00;;;;;;;17.48;94.63;101619.94;5069709;28;20033;-64
2022/07/12 01:32:24;;;;;;;1.63;0.85;;;;;;;17.46;94.11;101624.97;5069543;28;20131;-63
2022/07/12 01:34:55;;;;;;;1.13;0.93;;;;;;;17.40;94.21;101624.50;5067417;28;20032;-63
2022/07/12 01:37:22;;;;;;;1.10;0.88;;;;;;;17.37;94.52;101628.00;5070373;28;20091;-63
2022/07/12 01:39:53;;;;;;;1.45;1.20;;;;;;;17.26;94.67;101623.63;5070982;28;20063;-63
2022/07/12 01:42:22;;;;;;;;;;;;;;;17.30;94.37;101625.22;5071091;28;20540;-63
2022/07/12 01:44:50;;;;;;;3.25;0.80;;;;;;;17.31;94.57;101621.34;5071651;28;19965;-64
2022/07/12 01:47:17;;;;;;;1.50;0.95;;;;;;;17.32;94.49;101619.41;5070287;28;20037;-64
2022/07/12 01:49:43;;;;;;;2.00;1.30;;;;;;;17.20;94.83;101625.91;5071354;28;20725;-63
2022/07/12 01:52:09;;;;;;;1.63;1.00;;;;;;;17.14;94.25;101624.69;5071257;28;20036;-64
2022/07/12 01:54:35;;;;;;;2.65;1.25;;;;;;;17.01;94.58;101616.00;5067227;28;20053;-63
2022/07/12 01:57:02;;;;;;;2.28;1.10;;;;;;;17.03;95.12;101608.25;5060213;28;20036;-63
2022/07/12 01:59:29;;;;;;;1.80;0.93;;;;;;;17.13;94.51;101612.22;5064942;28;20256;-63
2022/07/12 02:01:56;;;;;;;1.60;1.48;;;;;;;17.12;94.70;101603.28;5070645;28;20040;-64
2022/07/12 02:04:21;;;;;;;1.92;1.00;;;;;;;17.06;94.49;101602.06;5067340;28;20370;-63
2022/07/12 02:06:48;;;;;;;1.50;1.10;;;;;;;16.99;94.59;101606.66;5068156;28;20170;-63
2022/07/12 02:09:14;;;;;;;1.48;1.15;;;;;;;17.01;95.14;101601.63;5070652;28;20037;-63
2022/07/12 02:11:41;;;;;;;1.60;1.23;;;;;;;17.05;94.28;101611.38;5071282;28;20143;-63
2022/07/12 02:14:07;;;;;;;1.95;1.15;;;;;;;17.04;94.42;101611.75;5060989;28;20024;-63
2022/07/12 02:16:33;;;;;;;1.67;1.05;;;;;;;17.08;93.79;101616.09;5067319;28;20040;-64
2022/07/12 02:18:58;;;;;;;3.15;1.52;;;;;;;16.97;93.97;101620.66;5070042;28;20808;-64
2022/07/12 02:21:24;;;;;;;1.88;1.20;;;;;;;16.84;94.14;101618.56;5070254;28;20055;-64
2022/07/12 02:23:50;;;;;;;2.60;1.48;;;;;;;16.85;94.41;101625.56;5065627;28;20041;-65
2022/07/12 02:26:16;;;;;;;3.55;1.75;;;;;;;16.68;95.17;101623.44;5067851;28;20039;-64
2022/07/12 02:28:42;;;;;;;2.60;1.50;;;;;;;16.62;95.91;101631.16;5068900;28;20101;-64
2022/07/12 02:31:08;;;;;;;2.22;1.35;;;;;;;16.68;96.49;101637.81;5062136;28;20036;-63
2022/07/12 02:33:34;;;;;;;2.55;1.08;;;;;;;16.65;96.14;101637.75;5068590;28;20119;-63
2022/07/12 02:36:00;;;;;;;1.83;1.20;;;;;;;16.76;95.41;101631.28;5065685;28;20067;-63
2022/07/12 02:38:25;;;;;;;1.77;1.27;;;;;;;16.83;94.92;101638.75;5067996;28;20103;-63
2022/07/12 02:40:54;;;;;;;1.95;1.30;;;;;;;16.83;94.47;101645.00;5068453;28;20124;-63
2022/07/12 02:43:24;;;;;;;1.77;1.15;;;;;;;16.70;94.75;101648.34;5067602;28;20067;-64
2022/07/12 02:45:51;;;;;;;1.65;1.02;;;;;;;16.56;94.68;101642.72;5069263;28;20115;-63
2022/07/12 02:48:17;;;;;;;1.45;1.10;;;;;;;16.43;95.71;101646.81;5066036;28;20571;-63
2022/07/12 02:50:42;;;;;;;2.28;1.10;;;;;;;16.45;95.50;101656.16;5065381;28;20036;-63
2022/07/12 02:53:09;;;;;;;2.25;1.15;;;;;;;16.25;96.73;101655.53;5067435;28;20487;-64
2022/07/12 02:55:35;;;;;;;1.27;1.15;;;;;;;16.44;95.81;101661.97;5068596;28;20491;-64
2022/07/12 02:58:01;;;;;;;1.63;1.10;;;;;;;16.27;96.39;101661.38;5069913;28;20060;-63
2022/07/12 03:00:28;;;;;;;1.85;1.10;;;;;;;16.20;97.24;101665.94;5068484;28;20067;-65
2022/07/12 03:02:53;;;;;;;1.40;1.10;;;;;;;16.37;96.06;101676.25;5069030;28;20032;-65
2022/07/12 03:05:19;;;;;;;1.90;1.50;;;;;;;16.47;95.36;101680.28;5064163;28;20051;-63
2022/07/12 03:07:44;;;;;;;1.45;1.02;;;;;;;16.57;95.05;101677.69;5064153;28;20082;-64
2022/07/12 03:10:10;;;;;;;1.80;1.17;;;;;;;16.50;95.08;101693.16;5073102;28;20028;-64
2022/07/12 03:12:37;;;;;;;1.70;1.50;;;;;;;16.48;95.54;101688.09;5064777;28;20036;-63
2022/07/12 03:15:04;;;;;;;1.30;1.13;;;;;;;16.34;95.96;101700.69;5074250;28;20169;-63
2022/07/12 03:17:29;;;;;;;1.73;1.30;;;;;;;16.26;96.19;101691.63;5067461;28;20097;-64
2022/07/12 03:19:55;;;;;;;1.98;1.15;;;;;;;16.15;97.02;101701.56;5049661;28;20033;-64
2022/07/12 03:22:20;;;;;;;2.00;1.45;;;;;;;16.24;96.89;101700.16;5065612;28;20041;-64
2022/07/12 03:24:46;;;;;;;1.90;1.33;;;;;;;16.21;96.92;101703.63;5069491;28;20024;-64
2022/07/12 03:27:11;;;;;;;2.80;1.35;;;;;;;16.16;97.95;101708.59;5069830;28;20359;-64
2022/07/12 03:29:37;;;;;;;2.72;1.67;;;;;;;16.22;97.50;101707.09;5069047;28;20085;-63
2022/07/12 03:32:03;;;;;;;4.95;1.65;;;;;;;16.27;97.80;101706.78;5065859;28;20067;-63
2022/07/12 03:34:29;;;;;;;2.88;1.58;;;;;;;16.40;97.07;101716.28;5062365;28;20471;-63
2022/07/12 03:36:54;;;;;;;2.25;1.50;;;;;;;16.30;98.03;101718.88;5068426;28;20047;-63
2022/07/12 03:39:20;;;;;;;2.30;1.40;;;;;;;16.39;97.74;101717.47;5066479;28;20031;-63
2022/07/12 03:41:45;;;;;;;2.90;1.40;;;;;;;16.38;97.86;101712.38;5067864;28;20505;-63
2022/07/12 03:44:11;;;;;;;2.00;1.13;;;;;;;16.49;98.01;101721.50;5065455;28;20475;-63
2022/07/12 03:46:36;;;;;;;1.90;1.50;;;;;;;16.55;97.43;101717.31;5059660;28;20024;-63
2022/07/12 03:49:02;;;;;;;1.83;1.30;;;;;;;16.58;97.68;101719.28;5065813;28;20485;-63
2022/07/12 03:51:27;;;;;;;1.90;1.40;;;;;;;16.49;97.78;101725.00;5059528;28;20040;-63
2022/07/12 03:53:53;;;;;;;3.50;1.30;;;;;;;16.52;98.18;101726.19;5069105;28;20025;-63
2022/07/12 03:59:03;;;;;;;2.65;1.42;;;;;;;16.57;98.46;101725.91;5050222;28;20402;-63
2022/07/12 04:01:29;;;;;;;1.83;1.13;;;;;;;16.70;97.77;101738.91;5063129;28;20039;-63
2022/07/12 04:03:57;;;;;;;1.77;1.52;;;;;;;16.73;97.73;101735.44;5070072;28;20489;-63
2022/07/12 04:06:23;;;;;;;2.55;1.17;;;;;;;16.75;98.47;101737.78;5062985;28;20115;-63
2022/07/12 04:08:49;;;;;;;2.03;1.23;;;;;;;16.87;98.11;101737.53;5065517;28;20336;-63
2022/07/12 04:11:14;;;;;;;2.97;1.55;;;;;;;16.99;97.97;101738.06;5062988;28;20033;-63
2022/07/12 04:13:40;;;;;;;3.20;1.60;;;;;;;17.03;97.11;101730.72;5066816;28;20060;-63
2022/07/12 04:16:05;;;;;;;2.38;1.65;;;;;;;17.03;96.68;101729.97;5058616;28;20045;-63
2022/07/12 04:18:31;;;;;;;2.47;1.40;;;;;;;17.08;96.54;101726.91;5063178;28;20040;-63
2022/07/12 04:20:58;;;;;;;2.55;1.70;;;;;;;17.13;97.09;101732.00;5062052;28;20025;-63
2022/07/12 04:23:24;;;;;;;2.28;1.45;;;;;;;17.02;97.33;101731.09;5068184;28;20494;-63
2022/07/12 04:25:50;;;;;;;1.55;1.10;;;;;;;17.09;96.74;101729.25;5068125;28;20525;-63
2022/07/12 04:28:15;;;;;;;3.83;1.48;;;;;;;17.12;96.41;101731.25;5073643;28;20037;-63
2022/07/12 04:30:44;;;;;;;2.20;1.45;;;;;;;17.14;97.09;101736.31;5074459;28;20070;-63
2022/07/12 04:33:10;;;;;;;3.15;1.67;;;;;;;17.21;96.65;101736.38;5072811;28;20063;-63
2022/07/12 04:35:37;;;;;;;2.33;1.45;;;;;;;17.22;96.84;101735.22;5068082;28;20416;-63
2022/07/12 04:38:03;;;;;;;1.98;1.30;;;;;;;17.23;96.90;101739.50;5067195;28;20135;-63
2022/07/12 04:40:28;;;;;;;1.90;1.23;;;;;;;17.29;96.40;101732.56;5071021;28;20402;-63
2022/07/12 04:42:54;;;;;;;1.95;1.25;;;;;;;17.38;96.33;101724.13;5060593;28;20032;-63
2022/07/12 04:45:20;;;;;;;3.67;1.48;;;;;;;17.27;97.39;101723.19;5061708;28;20384;-63
2022/07/12 04:47:45;;;;;;;1.60;1.13;;;;;;;17.32;97.61;101725.59;5067565;28;20043;-63
2022/07/12 04:50:11;;;;;;;1.73;1.13;;;;;;;17.38;97.28;101724.13;5063500;28;20414;-63
2022/07/12 04:52:37;;;;;;;4.47;1.17;;;;;;;17.42;97.58;101722.97;5066934;28;20024;-63
2022/07/12 04:55:03;;;;;;;1.55;1.08;;;;;;;17.49;96.83;101722.28;5070781;28;20092;-63
2022/07/12 04:57:29;;;;;;;2.40;1.38;;;;;;;17.56;96.32;101735.97;5062755;28;20044;-63
2022/07/12 04:59:54;;;;;;;1.80;1.02;;;;;;;17.58;95.50;101723.56;5073354;28;20047;-63
2022/07/12 05:02:20;;;;;;;2.28;1.80;;;;;;;17.65;95.18;101728.28;5071235;28;20047;-63
2022/07/12 05:04:46;;;;;;;1.88;1.20;;;;;;;17.57;95.81;101727.44;5067625;28;20020;-63
2022/07/12 05:07:11;;;;;;;2.85;1.40;;;;;;;17.59;95.75;101732.50;5058833;28;20193;-63
2022/07/12 05:09:37;;;;;;;2.22;1.25;;;;;;;17.57;95.97;101737.56;5070448;28;20028;-63
2022/07/12 05:12:03;;;;;;;3.83;1.70;;;;;;;17.57;96.36;101732.91;5063930;28;20107;-63
2022/07/12 05:14:28;;;;;;;1.98;1.00;;;;;;;17.59;96.08;101736.03;5065264;28;20023;-63
2022/07/12 05:16:54;;;;;;;2.88;1.42;;;;;;;17.71;96.77;101735.72;5066220;28;20103;-63
2022/07/12 05:19:19;;;;;;;2.40;1.35;;;;;;;18.26;95.65;101733.03;5071763;28;20033;-65
2022/07/12 05:21:45;;;;;;;3.50;1.55;;;;;;;18.67;93.48;101739.94;5072044;28;20029;-63
2022/07/12 05:24:11;;;;;;;3.92;1.73;;;;;;;18.76;91.77;101740.34;5059251;28;20025;-63
2022/07/12 05:26:36;;;;;;;3.35;1.67;;;;;;;18.82;90.98;101744.28;5060258;28;20032;-63
2022/07/12 05:29:02;;;;;;;5.18;1.48;;;;;;;18.83;91.02;101754.81;5059706;28;20072;-63
2022/07/12 05:31:27;;;;;;;2.72;1.50;;;;;;;18.88;90.57;101753.66;5070905;28;20048;-63
2022/07/12 05:33:53;;;;;;;4.78;1.45;;;;;;;18.87;90.93;101752.88;5066155;28;20079;-63
2022/07/12 05:36:19;;;;;;;3.78;1.95;;;;;;;18.84;91.50;101767.31;5064604;28;20036;-63
2022/07/12 05:38:45;;;;;;;1.95;1.35;;;;;;;18.76;92.53;101765.69;5063101;28;20049;-63
2022/07/12 05:41:11;;;;;;;1.75;0.98;;;;;;;18.72;92.50;101759.44;5060033;28;20086;-64
2022/07/12 05:43:36;;;;;;;2.75;1.85;;;;;;;18.75;92.68;101758.69;5073257;28;20025;-64
2022/07/12 05:46:03;;;;;;;1.95;1.35;;;;;;;18.83;92.87;101762.22;5070968;28;20036;-63
2022/07/12 05:48:29;;;;;;;2.25;1.23;;;;;;;18.83;92.68;101756.78;5068940;28;20056;-63
2022/07/12 05:50:54;;;;;;;2.97;1.58;;;;;;;18.99;91.57;101754.47;5055078;28;20498;-63
2022/07/12 05:53:22;;;;;;;2.75;1.50;;;;;;;19.03;91.63;101763.47;5062055;28;20171;-64
2022/07/12 05:55:52;;;;;;;3.78;1.85;;;;;;;19.06;91.40;101767.38;5076488;28;20039;-64
2022/07/12 05:58:19;;;;;;;4.03;2.00;;;;;;;19.02;92.06;101770.13;5056540;28;20056;-63
2022/07/12 06:00:46;;;;;;;3.38;1.85;;;;;;;19.11;91.67;101769.75;5062537;28;20057;-63
2022/07/12 06:03:13;;;;;;;3.15;1.90;;;;;;;19.18;91.18;101765.06;5066882;28;20025;-64
2022/07/12 06:05:39;;;;;;;3.88;2.03;;;;;;;19.19;91.48;101774.06;5064113;28;20386;-63
2022/07/12 06:08:04;;;;;;;3.97;1.83;;;;;;;19.24;91.69;101763.53;5068448;28;20102;-63
2022/07/12 06:10:30;;;;;;;3.67;2.45;;;;;;;19.40;91.80;101769.47;5075459;28;20056;-64
2022/07/12 06:12:56;;;;;;;4.45;2.50;;;;;;;19.49;91.71;101766.38;5055353;28;20111;-63
2022/07/12 06:15:21;;;;;;;3.75;2.40;;;;;;;19.64;91.59;101765.22;5060116;28;20430;-63
2022/07/12 06:17:47;;;;;;;4.75;2.42;;;;;;;19.88;90.94;101761.72;5058397;28;20032;-64
2022/07/12 06:20:33;;;;;;;2.83;1.90;;;;;;;20.20;88.92;101764.47;5064528;28;20163;-64
2022/07/12 06:22:59;;;;;;;3.10;1.83;;;;;;;20.53;87.61;101767.56;5059920;22;20236;-69
2022/07/12 06:25:25;;;;;;;2.30;1.75;;;;;;;20.69;85.57;101767.13;5038609;28;20509;-69
2022/07/12 06:27:51;;;;;;;2.78;1.60;;;;;;;20.78;83.19;101759.25;5039986;28;20025;-69
2022/07/12 06:30:20;;;;;;;4.22;1.65;;;;;;;20.71;82.39;101763.97;5035330;28;20037;-68
2022/07/12 06:32:46;;;;;;;2.10;1.33;;;;;;;20.67;82.22;101766.72;5043054;28;20379;-69
2022/07/12 06:35:13;;;;;;;2.47;1.30;;;;;;;20.60;82.04;101777.69;5050705;28;20029;-69
2022/07/12 06:37:38;;;;;;;1.90;0.95;;;;;;;20.56;83.09;101774.97;5047068;28;20508;-69
2022/07/12 06:40:05;;;;;;;1.40;1.05;;;;;;;20.54;83.63;101777.31;5047560;28;20032;-69
2022/07/12 06:42:30;;;;;;;2.45;1.30;;;;;;;20.58;83.69;101769.09;5048744;28;20033;-68
2022/07/12 06:44:58;;;;;;;2.55;1.35;;;;;;;20.61;83.48;101777.28;5045737;28;20048;-70
2022/07/12 06:47:24;;;;;;;2.88;1.55;;;;;;;20.59;83.54;101768.72;5044596;28;20103;-69
2022/07/12 06:49:50;;;;;;;2.20;1.52;;;;;;;20.68;83.02;101771.03;5045113;28;20032;-70
2022/07/12 06:52:15;;;;;;;1.55;1.23;;;;;;;20.76;82.93;101761.59;5046907;28;20469;-70
2022/07/12 06:54:41;;;;;;;3.22;1.83;;;;;;;20.92;81.39;101763.91;5047415;28;20064;-70
2022/07/12 06:57:07;;;;;;;1.75;1.50;;;;;;;20.97;81.34;101761.53;5039079;28;20129;-70
2022/07/12 06:59:32;;;;;;;2.05;1.40;;;;;;;21.11;81.14;101758.75;5049243;28;20511;-70
2022/07/12 07:01:58;;;;;;;3.22;1.40;;;;;;;21.32;80.36;101752.38;5046407;28;20083;-70
2022/07/12 07:04:24;;;;;;;3.50;1.40;;;;;;;21.43;80.21;101755.81;5045663;28;20511;-70
2022/07/12 07:06:50;;;;;;;3.33;1.83;;;;;;;21.61;79.68;101761.19;5048986;28;20041;-71
2022/07/12 07:09:16;;;;;;;1.83;1.50;;;;;;;21.69;78.98;101760.75;5048127;28;20048;-70
2022/07/12 07:11:42;;;;;;;3.22;1.63;;;;;;;21.73;78.76;101761.50;5043732;28;20036;-70
2022/07/12 07:14:10;;;;;;;7.57;1.48;;;;;;;21.79;78.23;101762.63;5047908;28;20436;-70
2022/07/12 07:16:36;;;;;;;1.77;1.40;;;;;;;21.87;78.00;101763.38;5049590;28;20040;-70
2022/07/12 07:19:02;;;;;;;2.08;1.15;;;;;;;21.82;77.51;101763.78;5046321;28;20086;-70
2022/07/12 07:21:28;;;;;;;2.10;1.48;;;;;;;21.75;78.54;101766.56;5047538;28;20407;-71
2022/07/12 07:23:54;;;;;;;2.58;1.23;;;;;;;21.83;77.21;101768.91;5047459;28;20037;-70
2022/07/12 07:26:19;;;;;;;2.05;1.25;;;;;;;21.92;76.35;101776.66;5044529;28;20025;-70
2022/07/12 07:31:29;;;;;;;2.30;1.33;;;;;;;21.93;77.95;101764.50;5045375;28;20059;-70
2022/07/12 07:33:54;;;;;;;2.00;1.27;;;;;;;22.06;74.91;101765.56;5050005;28;20020;-71
2022/07/12 07:36:20;;;;;;;2.22;1.40;;;;;;;22.06;75.33;101762.81;5044254;28;20037;-70
2022/07/12 07:38:45;;;;;;;1.67;1.20;;;;;;;22.18;75.28;101765.06;5047673;28;20624;-70
2022/07/12 07:41:11;;;;;;;1.38;1.10;;;;;;;22.21;74.90;101761.50;5042449;28;20094;-70
2022/07/12 07:43:36;;;;;;;1.67;1.30;;;;;;;22.26;74.90;101758.31;5047637;28;20516;-70
2022/07/12 07:46:02;;;;;;;1.60;1.00;;;;;;;22.43;74.08;101749.13;5047228;28;20032;-70
2022/07/12 07:48:28;;;;;;;5.47;1.13;;;;;;;22.40;74.05;101753.47;5043934;28;20413;-70
2022/07/12 07:50:54;;;;;;;1.70;1.25;;;;;;;22.35;74.54;101747.63;5045559;28;20060;-70
2022/07/12 07:53:20;;;;;;;1.33;1.13;;;;;;;22.41;74.23;101748.75;5028187;28;20060;-70
2022/07/12 07:55:45;;;;;;;1.42;1.25;;;;;;;22.45;73.48;101757.72;5047126;28;20013;-71
2022/07/12 07:58:11;;;;;;;2.85;1.20;;;;;;;22.48;73.00;101767.88;5042118;28;20052;-70
2022/07/12 08:00:36;;;;;;;3.67;1.23;;;;;;;22.51;71.70;101772.59;5041662;28;20045;-70
2022/07/12 08:03:02;;;;;;;1.17;1.08;;;;;;;22.47;73.21;101771.06;5046198;28;20055;-70
2022/07/12 08:05:28;;;;;;;2.30;1.10;;;;;;;22.42;73.93;101775.00;5045856;28;20560;-70
2022/07/12 08:07:54;;;;;;;2.90;1.40;;;;;;;22.45;73.80;101783.22;5045435;28;20029;-71
2022/07/12 08:10:19;;;;;;;1.42;1.20;;;;;;;22.51;73.24;101782.78;5048904;28;20473;-70
2022/07/12 08:12:45;;;;;;;1.48;1.00;;;;;;;22.67;74.14;101781.06;5041116;28;20048;-71
2022/07/12 08:15:10;;;;;;;1.42;1.25;;;;;;;22.86;72.70;101777.69;5039600;28;20029;-70
2022/07/12 08:17:37;;;;;;;1.23;1.00;;;;;;;22.98;72.19;101779.91;5048225;28;20029;-71
2022/07/12 08:20:04;;;;;;;1.98;1.25;;;;;;;23.00;71.43;101782.22;5048571;28;20040;-71
2022/07/12 08:22:30;;;;;;;1.25;0.90;;;;;;;23.00;70.50;101772.03;5046508;28;20033;-70
2022/07/12 08:24:55;;;;;;;1.80;1.02;;;;;;;23.02;71.66;101783.38;5048522;28;20025;-71
2022/07/12 08:27:21;;;;;;;1.60;1.08;;;;;;;23.07;71.00;101766.41;5047564;28;20239;-70
2022/07/12 08:29:46;;;;;;;1.20;1.10;;;;;;;23.10;71.09;101765.59;5048986;28;20040;-70
2022/07/12 08:32:12;;;;;;;1.05;0.75;;;;;;;23.08;70.05;101758.97;5043489;28;20048;-71
2022/07/12 08:34:37;;;;;;;1.00;0.90;;;;;;;23.10;69.81;101765.59;5046942;28;20013;-70
2022/07/12 08:37:04;;;;;;;2.50;1.17;;;;;;;23.05;70.23;101774.28;5045362;28;20048;-71
2022/07/12 08:39:29;;;;;;;1.92;1.10;;;;;;;23.06;70.74;101783.34;5045790;28;20040;-70
2022/07/12 08:41:55;;;;;;;1.60;1.10;;;;;;;23.15;71.22;101781.63;5046810;28;20032;-70
2022/07/12 08:44:20;;;;;;;2.95;1.17;;;;;;;23.15;70.77;101789.88;5039898;28;20040;-70
2022/07/12 08:46:47;;;;;;;0.90;0.73;;;;;;;23.15;70.33;101778.88;5043543;28;20681;-70
2022/07/12 08:49:12;;;;;;;3.15;1.55;;;;;;;23.12;70.08;101779.72;5044376;28;20112;-70
2022/07/12 08:51:38;;;;;;;3.70;0.98;;;;;;;23.07;70.70;101780.16;5048096;28;20120;-70
2022/07/12 08:54:08;;;;;;;2.33;1.30;;;;;;;23.10;69.63;101771.09;5042309;28;20028;-71
2022/07/12 08:56:39;;;;;;;2.38;1.00;;;;;;;23.15;69.44;101775.38;5042722;28;20611;-70
2022/07/12 08:59:21;;;;;;;1.00;0.90;;;;;;;23.09;70.14;101780.53;5046765;28;20393;-69
2022/07/12 09:01:53;;;;;;;5.68;1.13;;;;;;;23.30;69.17;101780.28;5044788;28;20063;-69
2022/07/12 09:04:24;;;;;;;3.63;1.23;;;;;;;23.46;68.55;101781.66;5041561;28;20539;-69
2022/07/12 09:06:50;;;;;;;1.70;1.15;;;;;;;23.56;69.65;101775.97;5046193;28;20481;-69
2022/07/12 09:10:03;;;;;;;2.03;1.05;;;;;;;23.86;69.83;101766.88;5041789;28;20067;-69
2022/07/12 09:12:29;;;;;;;2.33;0.93;;;;;;;24.10;65.80;101766.47;5038138;28;20374;-69
2022/07/12 09:15:09;;;;;;;2.17;0.98;;;;;;;24.36;65.39;101764.84;5051269;28;20017;-70
2022/07/12 09:17:35;;;;;;;3.92;1.00;;;;;;;24.65;64.23;101767.81;5049214;28;20045;-69
2022/07/12 09:20:00;;;;;;;2.13;0.93;;;;;;;24.80;64.02;101772.66;5051138;28;20037;-70
2022/07/12 09:22:26;;;;;;;1.67;1.02;;;;;;;24.96;62.61;101769.19;5049549;28;20052;-69
2022/07/12 09:24:51;;;;;;;1.73;0.98;;;;;;;24.91;63.77;101775.97;5047264;28;20494;-69
2022/07/12 09:27:25;;;;;;;1.13;0.90;;;;;;;25.13;63.55;101772.75;5046036;28;20041;-70
2022/07/12 09:29:51;;;;;;;1.70;0.82;;;;;;;25.21;62.36;101771.41;5047721;28;20102;-69
2022/07/12 09:37:47;;;;;;;1.05;0.80;;;;;;;25.54;59.88;101773.03;5046847;28;20178;-70
2022/07/12 09:40:13;;;;;;;1.00;0.88;;;;;;;25.62;60.39;101778.00;5032433;28;20064;-71
2022/07/12 09:43:01;;;;;;;2.53;1.00;;;;;;;25.80;59.35;101780.31;5044381;28;20120;-71
2022/07/12 09:45:47;;;;;;;0.63;0.55;;;;;;;25.88;60.00;101767.88;4948200;28;20063;-71
2022/07/12 09:48:12;;;;;;;2.25;0.70;;;;;;;26.07;58.89;101777.31;4948954;28;20050;-71
2022/07/12 09:50:39;;;;;;;1.38;0.90;;;;;;;26.47;57.04;101779.38;4944397;28;20110;-71
2022/07/12 09:53:05;;;;;;;1.33;0.85;;;;;;;26.66;56.77;101774.91;4947206;28;20110;-71
2022/07/12 09:55:50;;;;;;;1.42;0.80;;;;;;;26.72;58.66;101770.44;4948541;28;20039;-70
2022/07/12 09:58:45;;;;;;;1.38;0.80;;;;;;;27.08;56.67;101776.47;4949174;28;20102;-71
2022/07/12 10:01:12;;;;;;;0.90;0.90;;;;;;;27.19;56.12;101779.72;4952175;28;20035;-70
2022/07/12 10:03:40;;;;;;;0.98;0.70;;;;;;;27.46;55.06;101774.56;4947812;28;20051;-71
2022/07/12 10:06:07;;;;;;;1.83;0.75;;;;;;;27.67;52.31;101770.31;4950054;28;20023;-71
2022/07/12 10:08:51;;;;;;;3.40;1.02;;;;;;;27.77;52.80;101780.28;4948506;29;20047;-71
2022/07/12 10:11:16;;;;;;;0.80;0.70;;;;;;;27.79;53.07;101772.31;4949817;28;20126;-70
2022/07/12 10:13:43;;;;;;;1.75;0.52;;;;;;;27.72;52.07;101764.22;4948956;28;20121;-70
2022/07/12 10:19:32;;;;;;;2.40;1.10;;;;;;;27.80;52.81;101764.78;4941538;28;20891;-71
2022/07/12 10:21:58;;;;;;;;;;;;;;;27.99;51.71;101767.28;4977317;28;20124;-70
2022/07/12 10:27:18;;;;;;;0.80;0.65;;;;;;;28.30;50.54;101759.13;5045929;28;20040;-71
2022/07/12 10:29:46;;;;;;;0.98;0.77;;;;;;;28.39;49.09;101759.19;5012943;28;20619;-70
2022/07/12 10:32:26;;;;;;;1.23;0.60;;;;;;;28.49;50.60;101760.81;5048770;28;20037;-70
2022/07/12 10:35:07;;;;;;;1.30;0.68;;;;;;;28.71;50.66;101755.25;5047108;28;20037;-71
2022/07/12 10:37:34;;;;;;;3.15;0.77;;;;;;;28.69;48.80;101747.41;5043958;28;20044;-70
2022/07/12 10:40:16;;;;;;;1.13;0.57;;;;;;;28.78;49.83;101746.69;5044267;28;20481;-70
2022/07/12 10:43:04;;;;;;;0.65;0.50;;;;;;;29.02;48.26;101761.59;5024981;28;20508;-70
2022/07/12 10:45:34;;;;;;;1.20;0.60;;;;;;;29.24;47.10;101765.94;5026194;28;20044;-70
2022/07/12 10:48:01;;;;;;;1.58;0.60;;;;;;;29.33;47.56;101757.63;5043913;28;20028;-70
2022/07/12 10:50:44;;;;;;;0.70;0.60;;;;;;;29.30;47.45;101763.31;5040710;28;20052;-70
2022/07/12 10:53:19;;;;;;;0.50;0.50;;;;;;;29.34;46.70;101763.97;5045062;28;20061;-71
2022/07/12 10:56:04;;;;;;;1.25;0.50;;;;;;;29.32;46.60;101764.44;5046920;28;20033;-72
2022/07/12 10:58:39;;;;;;;0.73;0.50;;;;;;;29.46;46.43;101753.97;5039569;28;20689;-71
2022/07/12 11:01:07;;;;;;;0.70;0.60;;;;;;;29.62;46.10;101759.25;5046480;28;20040;-70
2022/07/12 11:03:39;;;;;;;0.73;0.60;;;;;;;29.65;46.89;101756.34;5048236;28;20039;-71
2022/07/12 11:06:07;;;;;;;0.90;0.60;;;;;;;29.73;46.91;101754.06;5048201;28;20029;-71
2022/07/12 11:09:07;;;;;;;0.47;0.40;;;;;;;29.65;47.08;101750.00;5046565;28;20064;-71
2022/07/12 11:11:39;;;;;;;0.80;0.68;;;;;;;29.69;47.39;101745.88;5046025;28;20371;-71
2022/07/12 11:14:05;;;;;;;2.97;0.43;;;;;;;29.74;47.10;101745.28;5048123;28;20029;-72
2022/07/12 11:16:30;;;;;;;0.80;0.50;;;;;;;29.89;46.31;101739.88;5047944;28;20029;-71
2022/07/12 11:18:56;;;;;;;0.63;0.55;;;;;;;30.03;46.11;101736.50;5043327;28;20489;-71
2022/07/12 11:21:23;;;;;;;0.93;0.60;;;;;;;30.08;46.31;101747.03;5043686;28;20037;-72
2022/07/12 11:26:35;;;;;;;0.60;0.60;;;;;;;30.34;45.90;101737.16;5048679;28;20477;-71
2022/07/12 11:29:02;;;;;;;1.58;0.70;;;;;;;30.48;45.72;101738.53;5047811;28;20491;-71
2022/07/12 11:31:27;;;;;;;0.93;0.60;;;;;;;30.36;45.32;101733.91;5044758;28;20028;-71
2022/07/12 11:33:53;;;;;;;1.38;0.40;;;;;;;30.51;46.25;101723.69;5048557;28;20534;-71
2022/07/12 11:36:19;;;;;;;1.25;0.68;;;;;;;29.93;45.22;101727.38;5037803;28;20762;-71
2022/07/12 11:38:45;;;;;;;0.75;0.52;;;;;;;30.50;45.61;101727.72;5042458;28;20036;-71
2022/07/12 11:41:13;;;;;;;1.10;0.60;;;;;;;30.75;45.18;101730.13;5045985;28;20477;-71
2022/07/12 11:43:57;;;;;;;1.23;0.80;;;;;;;30.90;45.61;101723.47;5040808;28;20079;-71
2022/07/12 11:46:23;;;;;;;0.40;0.40;;;;;;;30.90;45.11;101725.47;5045278;28;20064;-71
2022/07/12 11:48:48;;;;;;;0.80;0.60;;;;;;;30.87;45.78;101713.28;5039561;28;20026;-71